sensor_id;sensor_type;location;lat;lon;timestamp;pressure;altitude;pressure_sealevel;temperature;humidity
42511;BME280;28141;51.120;17.114;2023-04-21T00:00:22;101891.56;;;26.15;33.79
42511;BME280;28141;51.120;17.114;2023-04-21T00:03:36;101888.32;;;26.18;33.64
42511;BME280;28141;51.120;17.114;2023-04-21T00:07:19;101887.52;;;26.11;33.74
42511;BME280;28141;51.120;17.114;2023-04-21T00:10:34;101884.95;;;26.10;33.85
42511;BME280;28141;51.120;17.114;2023-04-21T00:13:48;101888.38;;;26.12;33.83
42511;BME280;28141;51.120;17.114;2023-04-21T00:17:02;101882.40;;;26.08;33.85
42511;BME280;28141;51.120;17.114;2023-04-21T00:20:41;101889.44;;;26.11;33.78
42511;BME280;28141;51.120;17.114;2023-04-21T00:23:55;101877.31;;;26.05;33.58
42511;BME280;28141;51.120;17.114;2023-04-21T00:27:09;101880.30;;;26.04;33.58
42511;BME280;28141;51.120;17.114;2023-04-21T00:30:24;101873.04;;;26.03;33.79
42511;BME280;28141;51.120;17.114;2023-04-21T00:34:03;101877.96;;;26.01;33.86
42511;BME280;28141;51.120;17.114;2023-04-21T00:37:17;101872.62;;;25.99;34.09
42511;BME280;28141;51.120;17.114;2023-04-21T00:40:31;101880.10;;;25.99;34.10
42511;BME280;28141;51.120;17.114;2023-04-21T00:47:38;101882.07;;;25.85;34.00
42511;BME280;28141;51.120;17.114;2023-04-21T00:50:52;101877.16;;;25.87;33.84
42511;BME280;28141;51.120;17.114;2023-04-21T00:54:07;101876.09;;;25.88;33.78
42511;BME280;28141;51.120;17.114;2023-04-21T00:57:22;101872.25;;;25.89;33.86
42511;BME280;28141;51.120;17.114;2023-04-21T01:01:00;101877.37;;;25.92;33.94
42511;BME280;28141;51.120;17.114;2023-04-21T01:04:14;101864.13;;;25.88;34.14
42511;BME280;28141;51.120;17.114;2023-04-21T01:07:29;101873.75;;;25.85;34.02
42511;BME280;28141;51.120;17.114;2023-04-21T01:10:43;101868.45;;;25.84;33.99
42511;BME280;28141;51.120;17.114;2023-04-21T01:14:22;101882.33;;;25.84;34.01
42511;BME280;28141;51.120;17.114;2023-04-21T01:17:36;101873.14;;;25.83;34.15
42511;BME280;28141;51.120;17.114;2023-04-21T01:20:50;101877.41;;;25.79;34.14
42511;BME280;28141;51.120;17.114;2023-04-21T01:24:05;101870.59;;;25.75;34.03
42511;BME280;28141;51.120;17.114;2023-04-21T01:27:44;101872.30;;;25.76;34.10
42511;BME280;28141;51.120;17.114;2023-04-21T01:30:58;101866.75;;;25.76;33.84
42511;BME280;28141;51.120;17.114;2023-04-21T01:34:13;101857.82;;;25.74;34.12
42511;BME280;28141;51.120;17.114;2023-04-21T01:37:30;101869.73;;;25.74;34.00
42511;BME280;28141;51.120;17.114;2023-04-21T01:41:09;101871.90;;;25.72;34.08
42511;BME280;28141;51.120;17.114;2023-04-21T01:44:25;101871.47;;;25.69;33.98
42511;BME280;28141;51.120;17.114;2023-04-21T01:47:39;101862.93;;;25.70;34.11
42511;BME280;28141;51.120;17.114;2023-04-21T01:50:53;101870.59;;;25.75;33.93
42511;BME280;28141;51.120;17.114;2023-04-21T01:54:34;101871.90;;;25.72;34.05
42511;BME280;28141;51.120;17.114;2023-04-21T01:57:48;101870.20;;;25.71;34.18
42511;BME280;28141;51.120;17.114;2023-04-21T02:01:03;101862.95;;;25.64;34.55
42511;BME280;28141;51.120;17.114;2023-04-21T02:04:16;101878.78;;;25.63;34.04
42511;BME280;28141;51.120;17.114;2023-04-21T02:07:55;101880.70;;;25.63;34.13
42511;BME280;28141;51.120;17.114;2023-04-21T02:11:09;101862.34;;;25.62;34.10
42511;BME280;28141;51.120;17.114;2023-04-21T02:14:26;101868.96;;;25.61;34.23
42511;BME280;28141;51.120;17.114;2023-04-21T02:17:40;101862.73;;;25.59;34.37
42511;BME280;28141;51.120;17.114;2023-04-21T02:21:22;101862.95;;;25.57;34.15
42511;BME280;28141;51.120;17.114;2023-04-21T02:24:36;101875.75;;;25.58;33.85
42511;BME280;28141;51.120;17.114;2023-04-21T02:27:50;101870.63;;;25.55;34.31
42511;BME280;28141;51.120;17.114;2023-04-21T02:31:04;101872.12;;;25.58;34.27
42511;BME280;28141;51.120;17.114;2023-04-21T02:34:43;101876.39;;;25.54;34.17
42511;BME280;28141;51.120;17.114;2023-04-21T02:37:57;101876.18;;;25.55;34.32
42511;BME280;28141;51.120;17.114;2023-04-21T02:41:11;101878.32;;;25.53;34.11
42511;BME280;28141;51.120;17.114;2023-04-21T02:44:25;101878.56;;;25.52;34.27
42511;BME280;28141;51.120;17.114;2023-04-21T02:48:05;101890.72;;;25.51;34.16
42511;BME280;28141;51.120;17.114;2023-04-21T02:51:19;101886.89;;;25.52;33.97
42511;BME280;28141;51.120;17.114;2023-04-21T02:54:33;101886.67;;;25.46;34.34
42511;BME280;28141;51.120;17.114;2023-04-21T02:57:47;101889.26;;;25.41;34.41
42511;BME280;28141;51.120;17.114;2023-04-21T03:01:25;101884.32;;;25.43;34.25
42511;BME280;28141;51.120;17.114;2023-04-21T03:04:39;101887.30;;;25.42;34.25
42511;BME280;28141;51.120;17.114;2023-04-21T03:07:53;101888.16;;;25.42;34.23
42511;BME280;28141;51.120;17.114;2023-04-21T03:11:07;101886.24;;;25.43;34.31
42511;BME280;28141;51.120;17.114;2023-04-21T03:14:46;101889.87;;;25.43;34.23
42511;BME280;28141;51.120;17.114;2023-04-21T03:18:00;101894.35;;;25.44;34.10
42511;BME280;28141;51.120;17.114;2023-04-21T03:21:14;101902.66;;;25.44;34.03
42511;BME280;28141;51.120;17.114;2023-04-21T03:24:28;101902.27;;;25.41;34.29
42511;BME280;28141;51.120;17.114;2023-04-21T03:28:07;101896.72;;;25.34;34.25
42511;BME280;28141;51.120;17.114;2023-04-21T03:31:21;101893.94;;;25.34;34.21
42511;BME280;28141;51.120;17.114;2023-04-21T03:34:34;101896.72;;;25.34;34.50
42511;BME280;28141;51.120;17.114;2023-04-21T03:37:49;101904.19;;;25.34;34.27
42511;BME280;28141;51.120;17.114;2023-04-21T03:41:27;101907.16;;;25.32;34.32
42511;BME280;28141;51.120;17.114;2023-04-21T03:44:41;101900.38;;;25.28;34.31
42511;BME280;28141;51.120;17.114;2023-04-21T03:47:55;101898.45;;;25.29;34.32
42511;BME280;28141;51.120;17.114;2023-04-21T03:51:09;101904.39;;;25.32;34.26
42511;BME280;28141;51.120;17.114;2023-04-21T03:54:47;101906.77;;;25.29;34.41
42511;BME280;28141;51.120;17.114;2023-04-21T03:58:01;101907.63;;;25.29;34.75
42511;BME280;28141;51.120;17.114;2023-04-21T04:01:15;101910.40;;;25.29;34.29
42511;BME280;28141;51.120;17.114;2023-04-21T04:04:29;101915.48;;;25.32;34.27
42511;BME280;28141;51.120;17.114;2023-04-21T04:08:08;101882.05;;;25.14;34.21
42511;BME280;28141;51.120;17.114;2023-04-21T04:11:21;101917.20;;;25.33;34.26
42511;BME280;28141;51.120;17.114;2023-04-21T04:14:35;101915.48;;;25.32;33.92
42511;BME280;28141;51.120;17.114;2023-04-21T04:17:49;101920.83;;;25.34;33.82
42511;BME280;28141;51.120;17.114;2023-04-21T04:21:28;101922.34;;;25.30;33.83
42511;BME280;28141;51.120;17.114;2023-04-21T04:24:43;101925.52;;;25.33;33.90
42511;BME280;28141;51.120;17.114;2023-04-21T04:27:57;101918.52;;;25.31;33.56
42511;BME280;28141;51.120;17.114;2023-04-21T04:31:12;101924.45;;;25.34;33.64
42511;BME280;28141;51.120;17.114;2023-04-21T04:34:54;101926.81;;;25.37;33.48
42511;BME280;28141;51.120;17.114;2023-04-21T04:38:08;101930.01;;;25.34;33.34
42511;BME280;28141;51.120;17.114;2023-04-21T04:41:23;101934.92;;;25.39;33.38
42511;BME280;28141;51.120;17.114;2023-04-21T04:44:37;101927.45;;;25.39;33.14
42511;BME280;28141;51.120;17.114;2023-04-21T04:48:18;101922.74;;;25.33;33.26
42511;BME280;28141;51.120;17.114;2023-04-21T04:51:32;101929.79;;;25.36;33.17
42511;BME280;28141;51.120;17.114;2023-04-21T04:54:46;101933.22;;;25.38;33.16
42511;BME280;28141;51.120;17.114;2023-04-21T04:58:00;101933.64;;;25.41;32.92
42511;BME280;28141;51.120;17.114;2023-04-21T05:01:39;101941.30;;;25.46;32.99
42511;BME280;28141;51.120;17.114;2023-04-21T05:04:54;101924.44;;;25.48;33.04
42511;BME280;28141;51.120;17.114;2023-04-21T05:08:09;101926.80;;;25.51;32.77
42511;BME280;28141;51.120;17.114;2023-04-21T05:11:23;101927.40;;;25.53;32.85
42511;BME280;28141;51.120;17.114;2023-04-21T05:15:01;101931.88;;;25.54;32.79
42511;BME280;28141;51.120;17.114;2023-04-21T05:18:15;101928.68;;;25.57;32.96
42511;BME280;28141;51.120;17.114;2023-04-21T05:21:29;101932.56;;;25.62;32.35
42511;BME280;28141;51.120;17.114;2023-04-21T05:24:44;101936.38;;;25.68;32.56
42511;BME280;28141;51.120;17.114;2023-04-21T05:28:22;101934.67;;;25.73;32.40
42511;BME280;28141;51.120;17.114;2023-04-21T05:31:36;101939.33;;;25.79;32.47
42511;BME280;28141;51.120;17.114;2023-04-21T05:34:51;101935.27;;;25.82;32.23
42511;BME280;28141;51.120;17.114;2023-04-21T05:38:05;101933.33;;;25.89;32.00
42511;BME280;28141;51.120;17.114;2023-04-21T05:41:44;101932.21;;;25.97;31.62
42511;BME280;28141;51.120;17.114;2023-04-21T05:44:58;101927.30;;;25.99;31.65
42511;BME280;28141;51.120;17.114;2023-04-21T05:48:12;101933.27;;;26.02;31.49
42511;BME280;28141;51.120;17.114;2023-04-21T05:51:26;101935.62;;;26.05;31.12
42511;BME280;28141;51.120;17.114;2023-04-21T05:55:05;101938.16;;;26.07;31.56
42511;BME280;28141;51.120;17.114;2023-04-21T05:58:19;101933.66;;;26.12;31.68
42511;BME280;28141;51.120;17.114;2023-04-21T06:01:33;101941.55;;;26.15;31.52
42511;BME280;28141;51.120;17.114;2023-04-21T06:04:48;101929.55;;;26.22;31.06
42511;BME280;28141;51.120;17.114;2023-04-21T06:08:27;101932.74;;;26.25;31.16
42511;BME280;28141;51.120;17.114;2023-04-21T06:11:41;101935.73;;;26.30;31.11
42511;BME280;28141;51.120;17.114;2023-04-21T06:14:55;101929.95;;;26.32;31.09
42511;BME280;28141;51.120;17.114;2023-04-21T06:18:10;101935.66;;;26.43;31.51
42511;BME280;28141;51.120;17.114;2023-04-21T06:21:49;101945.05;;;26.49;31.35
42511;BME280;28141;51.120;17.114;2023-04-21T06:25:04;101905.95;;;26.44;31.29
42511;BME280;28141;51.120;17.114;2023-04-21T06:28:18;101934.66;;;26.69;31.30
42511;BME280;28141;51.120;17.114;2023-04-21T06:31:33;101929.95;;;26.70;31.21
42511;BME280;28141;51.120;17.114;2023-04-21T06:35:12;101926.70;;;26.73;31.10
42511;BME280;28141;51.120;17.114;2023-04-21T06:38:27;101930.52;;;26.78;31.14
42511;BME280;28141;51.120;17.114;2023-04-21T06:41:41;101933.24;;;26.85;31.24
42511;BME280;28141;51.120;17.114;2023-04-21T06:44:56;101930.88;;;26.88;30.99
42511;BME280;28141;51.120;17.114;2023-04-21T06:48:34;101940.51;;;26.93;31.02
42511;BME280;28141;51.120;17.114;2023-04-21T06:51:48;101926.35;;;26.94;30.88
42511;BME280;28141;51.120;17.114;2023-04-21T06:55:03;101931.03;;;27.00;30.85
42511;BME280;28141;51.120;17.114;2023-04-21T06:58:17;101927.29;;;27.13;30.75
42511;BME280;28141;51.120;17.114;2023-04-21T07:01:55;101929.21;;;27.12;30.59
42511;BME280;28141;51.120;17.114;2023-04-21T07:05:09;101921.02;;;27.17;30.26
42511;BME280;28141;51.120;17.114;2023-04-21T07:08:24;101930.40;;;27.23;29.95
42511;BME280;28141;51.120;17.114;2023-04-21T07:11:38;101922.84;;;27.30;30.60
42511;BME280;28141;51.120;17.114;2023-04-21T07:15:16;101939.93;;;27.34;30.35
42511;BME280;28141;51.120;17.114;2023-04-21T07:18:31;101930.43;;;27.41;30.20
42511;BME280;28141;51.120;17.114;2023-04-21T07:21:46;101932.77;;;27.44;30.22
42511;BME280;28141;51.120;17.114;2023-04-21T07:25:04;101932.53;;;27.46;30.10
42511;BME280;28141;51.120;17.114;2023-04-21T07:28:45;101937.38;;;27.57;29.97
42511;BME280;28141;51.120;17.114;2023-04-21T07:31:59;101928.76;;;27.58;30.37
42511;BME280;28141;51.120;17.114;2023-04-21T07:35:13;101931.73;;;27.64;29.48
42511;BME280;28141;51.120;17.114;2023-04-21T07:38:27;101933.57;;;27.70;29.02
42511;BME280;28141;51.120;17.114;2023-04-21T07:42:07;101931.58;;;27.77;29.64
42511;BME280;28141;51.120;17.114;2023-04-21T07:45:23;101931.27;;;27.85;29.64
42511;BME280;28141;51.120;17.114;2023-04-21T07:48:39;101929.23;;;27.92;29.78
42511;BME280;28141;51.120;17.114;2023-04-21T07:51:52;101927.08;;;27.94;29.70
42511;BME280;28141;51.120;17.114;2023-04-21T07:55:32;101936.52;;;27.93;29.34
42511;BME280;28141;51.120;17.114;2023-04-21T07:58:49;101928.09;;;28.00;29.41
42511;BME280;28141;51.120;17.114;2023-04-21T08:02:03;101927.24;;;27.99;29.86
42511;BME280;28141;51.120;17.114;2023-04-21T08:05:18;101926.30;;;28.05;29.28
42511;BME280;28141;51.120;17.114;2023-04-21T08:08:58;101928.62;;;28.08;29.12
42511;BME280;28141;51.120;17.114;2023-04-21T08:12:12;101919.55;;;28.13;29.20
42511;BME280;28141;51.120;17.114;2023-04-21T08:15:26;101929.38;;;28.15;29.14
42511;BME280;28141;51.120;17.114;2023-04-21T08:18:40;101921.45;;;28.19;29.16
42511;BME280;28141;51.120;17.114;2023-04-21T08:22:20;101925.70;;;28.21;29.01
42511;BME280;28141;51.120;17.114;2023-04-21T08:25:36;101916.78;;;28.31;28.42
42511;BME280;28141;51.120;17.114;2023-04-21T08:28:50;101921.27;;;28.32;29.10
42511;BME280;28141;51.120;17.114;2023-04-21T08:32:05;101918.37;;;28.39;29.23
42511;BME280;28141;51.120;17.114;2023-04-21T08:35:45;101921.31;;;28.44;28.79
42511;BME280;28141;51.120;17.114;2023-04-21T08:39:00;101910.76;;;28.46;28.99
42511;BME280;28141;51.120;17.114;2023-04-21T08:42:18;101914.31;;;28.53;28.62
42511;BME280;28141;51.120;17.114;2023-04-21T08:45:33;101911.52;;;28.53;28.39
42511;BME280;28141;51.120;17.114;2023-04-21T08:49:17;101910.80;;;28.57;28.87
42511;BME280;28141;51.120;17.114;2023-04-21T08:52:31;101904.52;;;28.62;28.64
42511;BME280;28141;51.120;17.114;2023-04-21T08:55:46;101895.69;;;28.65;29.39
42511;BME280;28141;51.120;17.114;2023-04-21T08:59:04;101899.21;;;28.72;28.12
42511;BME280;28141;51.120;17.114;2023-04-21T09:06:10;101899.45;;;28.70;28.25
42511;BME280;28141;51.120;17.114;2023-04-21T09:09:27;101900.45;;;28.76;28.70
42511;BME280;28141;51.120;17.114;2023-04-21T09:12:40;101895.02;;;28.81;28.39
42511;BME280;28141;51.120;17.114;2023-04-21T09:16:24;101897.80;;;28.81;28.78
42511;BME280;28141;51.120;17.114;2023-04-21T09:19:41;101889.82;;;28.85;28.24
42511;BME280;28141;51.120;17.114;2023-04-21T09:22:55;101889.34;;;28.88;28.75
42511;BME280;28141;51.120;17.114;2023-04-21T09:26:10;101885.81;;;28.92;28.88
42511;BME280;28141;51.120;17.114;2023-04-21T09:29:50;101887.16;;;29.01;28.90
42511;BME280;28141;51.120;17.114;2023-04-21T09:33:05;101879.02;;;29.00;28.79
42511;BME280;28141;51.120;17.114;2023-04-21T09:36:24;101880.48;;;29.02;28.12
42511;BME280;28141;51.120;17.114;2023-04-21T09:39:44;101880.63;;;29.08;28.66
42511;BME280;28141;51.120;17.114;2023-04-21T09:43:25;101871.03;;;29.15;28.64
42511;BME280;28141;51.120;17.114;2023-04-21T09:46:42;101870.05;;;29.21;28.46
42511;BME280;28141;51.120;17.114;2023-04-21T09:49:58;101864.36;;;29.28;28.49
42511;BME280;28141;51.120;17.114;2023-04-21T09:53:15;101861.84;;;29.38;27.88
42511;BME280;28141;51.120;17.114;2023-04-21T09:57:01;101874.19;;;29.42;27.85
42511;BME280;28141;51.120;17.114;2023-04-21T10:00:16;101865.47;;;29.50;28.24
42511;BME280;28141;51.120;17.114;2023-04-21T10:03:31;101862.06;;;29.48;27.87
42511;BME280;28141;51.120;17.114;2023-04-21T10:06:46;101859.02;;;29.50;27.30
42511;BME280;28141;51.120;17.114;2023-04-21T10:10:01;101851.12;;;29.58;27.34
42511;BME280;28141;51.120;17.114;2023-04-21T10:13:45;101850.12;;;29.64;27.43
42511;BME280;28141;51.120;17.114;2023-04-21T10:17:04;101846.23;;;29.65;27.13
42511;BME280;28141;51.120;17.114;2023-04-21T10:21:19;101843.44;;;29.65;27.74
42511;BME280;28141;51.120;17.114;2023-04-21T10:24:38;101840.86;;;29.75;27.27
42511;BME280;28141;51.120;17.114;2023-04-21T10:27:52;101838.19;;;29.81;26.84
42511;BME280;28141;51.120;17.114;2023-04-21T10:31:22;101828.72;;;29.82;26.94
42511;BME280;28141;51.120;17.114;2023-04-21T10:34:36;101845.48;;;29.82;26.99
42511;BME280;28141;51.120;17.114;2023-04-21T10:41:43;101824.18;;;29.92;25.92
42511;BME280;28141;51.120;17.114;2023-04-21T10:45:07;101822.30;;;30.09;26.08
42511;BME280;28141;51.120;17.114;2023-04-21T10:48:21;101824.61;;;30.12;26.70
42511;BME280;28141;51.120;17.114;2023-04-21T10:52:06;101823.59;;;30.19;25.52
42511;BME280;28141;51.120;17.114;2023-04-21T10:55:21;101816.23;;;30.29;24.89
42511;BME280;28141;51.120;17.114;2023-04-21T10:58:39;101818.89;;;30.36;25.35
42511;BME280;28141;51.120;17.114;2023-04-21T11:01:54;101805.23;;;30.39;24.98
42511;BME280;28141;51.120;17.114;2023-04-21T11:05:38;101807.79;;;30.41;24.76
42511;BME280;28141;51.120;17.114;2023-04-21T11:08:57;101806.55;;;30.48;24.69
42511;BME280;28141;51.120;17.114;2023-04-21T11:12:12;101787.82;;;30.49;24.77
42511;BME280;28141;51.120;17.114;2023-04-21T11:15:27;101800.12;;;30.65;24.47
42511;BME280;28141;51.120;17.114;2023-04-21T11:19:07;101802.16;;;30.69;23.83
42511;BME280;28141;51.120;17.114;2023-04-21T11:22:24;101792.14;;;30.73;23.75
42511;BME280;28141;51.120;17.114;2023-04-21T11:25:39;101797.59;;;30.80;23.95
42511;BME280;28141;51.120;17.114;2023-04-21T11:28:53;101794.26;;;30.83;23.46
42511;BME280;28141;51.120;17.114;2023-04-21T11:32:33;101795.19;;;30.89;23.25
42511;BME280;28141;51.120;17.114;2023-04-21T11:35:47;101795.54;;;30.92;22.92
42511;BME280;28141;51.120;17.114;2023-04-21T11:39:11;101788.55;;;30.95;22.33
42511;BME280;28141;51.120;17.114;2023-04-21T11:42:27;101791.20;;;31.01;23.58
42511;BME280;28141;51.120;17.114;2023-04-21T11:49:48;101781.69;;;31.02;23.05
42511;BME280;28141;51.120;17.114;2023-04-21T11:52:57;101771.84;;;31.16;23.47
42511;BME280;28141;51.120;17.114;2023-04-21T11:56:39;101775.30;;;31.24;23.38
42511;BME280;28141;51.120;17.114;2023-04-21T11:59:56;101771.54;;;31.35;23.57
42511;BME280;28141;51.120;17.114;2023-04-21T12:03:12;101766.91;;;31.45;23.23
42511;BME280;28141;51.120;17.114;2023-04-21T12:06:26;101766.70;;;31.52;23.38
42511;BME280;28141;51.120;17.114;2023-04-21T12:10:09;101761.73;;;31.59;23.44
42511;BME280;28141;51.120;17.114;2023-04-21T12:13:27;101752.37;;;31.70;23.50
42511;BME280;28141;51.120;17.114;2023-04-21T12:16:43;101752.19;;;31.77;23.60
42511;BME280;28141;51.120;17.114;2023-04-21T12:20:05;101745.59;;;31.88;23.50
42511;BME280;28141;51.120;17.114;2023-04-21T12:23:46;101748.48;;;31.98;23.62
42511;BME280;28141;51.120;17.114;2023-04-21T12:27:00;101737.38;;;32.08;23.51
42511;BME280;28141;51.120;17.114;2023-04-21T12:30:15;101744.55;;;32.21;23.43
42511;BME280;28141;51.120;17.114;2023-04-21T12:33:29;101722.77;;;32.33;22.55
42511;BME280;28141;51.120;17.114;2023-04-21T12:37:10;101739.18;;;32.51;22.96
42511;BME280;28141;51.120;17.114;2023-04-21T12:40:24;101728.61;;;32.63;22.53
42511;BME280;28141;51.120;17.114;2023-04-21T12:43:39;101730.98;;;32.77;23.42
42511;BME280;28141;51.120;17.114;2023-04-21T12:46:53;101723.75;;;32.91;22.04
42511;BME280;28141;51.120;17.114;2023-04-21T12:50:33;101730.84;;;33.04;22.19
42511;BME280;28141;51.120;17.114;2023-04-21T12:53:47;101737.93;;;33.16;22.18
42511;BME280;28141;51.120;17.114;2023-04-21T12:57:01;101728.78;;;33.31;22.15
42511;BME280;28141;51.120;17.114;2023-04-21T13:00:16;101721.78;;;33.44;21.33
42511;BME280;28141;51.120;17.114;2023-04-21T13:03:56;101733.07;;;33.59;21.74
42511;BME280;28141;51.120;17.114;2023-04-21T13:07:10;101721.85;;;33.69;21.80
42511;BME280;28141;51.120;17.114;2023-04-21T13:10:25;101721.93;;;33.84;21.43
42511;BME280;28141;51.120;17.114;2023-04-21T13:13:39;101709.86;;;33.94;21.81
42511;BME280;28141;51.120;17.114;2023-04-21T13:17:19;101711.82;;;34.03;21.48
42511;BME280;28141;51.120;17.114;2023-04-21T13:20:33;101708.47;;;34.17;21.57
42511;BME280;28141;51.120;17.114;2023-04-21T13:23:47;101709.86;;;34.24;21.32
42511;BME280;28141;51.120;17.114;2023-04-21T13:27:02;101704.82;;;34.31;21.09
42511;BME280;28141;51.120;17.114;2023-04-21T13:30:41;101703.12;;;34.40;21.16
42511;BME280;28141;51.120;17.114;2023-04-21T13:33:55;101697.79;;;34.49;20.83
42511;BME280;28141;51.120;17.114;2023-04-21T13:37:09;101690.45;;;34.58;21.34
42511;BME280;28141;51.120;17.114;2023-04-21T13:40:29;101684.80;;;34.68;20.69
42511;BME280;28141;51.120;17.114;2023-04-21T13:44:10;101686.78;;;34.78;20.65
42511;BME280;28141;51.120;17.114;2023-04-21T13:47:23;101674.63;;;34.88;20.10
42511;BME280;28141;51.120;17.114;2023-04-21T13:50:38;101672.34;;;35.00;20.39
42511;BME280;28141;51.120;17.114;2023-04-21T13:53:53;101666.09;;;35.13;20.41
42511;BME280;28141;51.120;17.114;2023-04-21T13:57:33;101660.68;;;35.27;20.37
42511;BME280;28141;51.120;17.114;2023-04-21T14:00:47;101662.32;;;35.38;20.43
42511;BME280;28141;51.120;17.114;2023-04-21T14:04:01;101662.52;;;35.52;19.96
42511;BME280;28141;51.120;17.114;2023-04-21T14:07:15;101659.34;;;35.63;19.97
42511;BME280;28141;51.120;17.114;2023-04-21T14:10:57;101649.38;;;35.81;19.66
42511;BME280;28141;51.120;17.114;2023-04-21T14:14:12;101645.88;;;35.94;19.39
42511;BME280;28141;51.120;17.114;2023-04-21T14:17:26;101640.15;;;36.04;19.82
42511;BME280;28141;51.120;17.114;2023-04-21T14:20:39;101636.06;;;36.20;19.05
42511;BME280;28141;51.120;17.114;2023-04-21T14:24:23;101639.37;;;36.33;19.12
42511;BME280;28141;51.120;17.114;2023-04-21T14:27:43;101625.70;;;36.45;18.99
42511;BME280;28141;51.120;17.114;2023-04-21T14:30:57;101620.77;;;36.55;18.72
42511;BME280;28141;51.120;17.114;2023-04-21T14:34:10;101628.79;;;36.67;18.83
42511;BME280;28141;51.120;17.114;2023-04-21T14:37:51;101625.59;;;36.79;18.73
42511;BME280;28141;51.120;17.114;2023-04-21T14:41:05;101631.10;;;36.89;18.07
42511;BME280;28141;51.120;17.114;2023-04-21T14:44:19;101623.97;;;36.97;18.70
42511;BME280;28141;51.120;17.114;2023-04-21T14:47:33;101614.51;;;37.06;18.25
42511;BME280;28141;51.120;17.114;2023-04-21T14:51:17;101624.26;;;37.19;18.41
42511;BME280;28141;51.120;17.114;2023-04-21T14:54:31;101610.29;;;37.27;18.13
42511;BME280;28141;51.120;17.114;2023-04-21T14:57:45;101608.75;;;37.35;18.43
42511;BME280;28141;51.120;17.114;2023-04-21T15:00:59;101619.35;;;37.43;18.19
42511;BME280;28141;51.120;17.114;2023-04-21T15:04:38;101615.77;;;37.56;18.16
42511;BME280;28141;51.120;17.114;2023-04-21T15:07:52;101601.02;;;37.59;17.85
42511;BME280;28141;51.120;17.114;2023-04-21T15:11:06;101601.44;;;37.53;18.38
42511;BME280;28141;51.120;17.114;2023-04-21T15:14:20;101605.30;;;37.57;18.11
42511;BME280;28141;51.120;17.114;2023-04-21T15:17:59;101606.02;;;37.68;17.98
42511;BME280;28141;51.120;17.114;2023-04-21T15:21:13;101601.32;;;37.77;17.73
42511;BME280;28141;51.120;17.114;2023-04-21T15:24:27;101597.48;;;37.86;17.40
42511;BME280;28141;51.120;17.114;2023-04-21T15:27:41;101595.54;;;38.00;17.76
42511;BME280;28141;51.120;17.114;2023-04-21T15:31:19;101595.60;;;38.14;17.58
42511;BME280;28141;51.120;17.114;2023-04-21T15:34:33;101588.07;;;38.23;17.61
42511;BME280;28141;51.120;17.114;2023-04-21T15:37:48;101592.06;;;38.36;17.51
42511;BME280;28141;51.120;17.114;2023-04-21T15:41:01;101592.10;;;38.50;17.50
42511;BME280;28141;51.120;17.114;2023-04-21T15:44:40;101588.87;;;38.70;17.39
42511;BME280;28141;51.120;17.114;2023-04-21T15:47:54;101584.53;;;38.86;17.31
42511;BME280;28141;51.120;17.114;2023-04-21T15:51:08;101574.69;;;38.97;17.23
42511;BME280;28141;51.120;17.114;2023-04-21T15:54:23;101576.04;;;39.14;17.05
42511;BME280;28141;51.120;17.114;2023-04-21T15:58:01;101580.41;;;39.20;17.14
42511;BME280;28141;51.120;17.114;2023-04-21T16:01:15;101576.32;;;39.26;17.04
42511;BME280;28141;51.120;17.114;2023-04-21T16:04:29;101574.82;;;39.28;17.12
42511;BME280;28141;51.120;17.114;2023-04-21T16:07:43;101569.35;;;39.32;16.84
42511;BME280;28141;51.120;17.114;2023-04-21T16:11:23;101566.40;;;39.37;16.98
42511;BME280;28141;51.120;17.114;2023-04-21T16:14:37;101569.73;;;39.39;16.62
42511;BME280;28141;51.120;17.114;2023-04-21T16:17:51;101552.72;;;39.39;16.91
42511;BME280;28141;51.120;17.114;2023-04-21T16:21:05;101558.39;;;39.39;16.98
42511;BME280;28141;51.120;17.114;2023-04-21T16:24:44;101563.58;;;39.37;17.03
42511;BME280;28141;51.120;17.114;2023-04-21T16:27:58;101562.73;;;39.36;17.02
42511;BME280;28141;51.120;17.114;2023-04-21T16:31:12;101555.17;;;39.32;17.08
42511;BME280;28141;51.120;17.114;2023-04-21T16:34:26;101553.18;;;39.32;16.96
42511;BME280;28141;51.120;17.114;2023-04-21T16:38:05;101552.98;;;39.29;17.07
42511;BME280;28141;51.120;17.114;2023-04-21T16:41:19;101548.46;;;39.28;17.32
42511;BME280;28141;51.120;17.114;2023-04-21T16:44:33;101554.27;;;39.23;17.26
42511;BME280;28141;51.120;17.114;2023-04-21T16:47:47;101553.05;;;39.15;16.92
42511;BME280;28141;51.120;17.114;2023-04-21T16:51:26;101554.76;;;39.02;17.29
42511;BME280;28141;51.120;17.114;2023-04-21T16:54:40;101543.62;;;38.92;17.24
42511;BME280;28141;51.120;17.114;2023-04-21T16:57:54;101551.30;;;38.64;17.50
42511;BME280;28141;51.120;17.114;2023-04-21T17:01:08;101550.55;;;38.31;17.66
42511;BME280;28141;51.120;17.114;2023-04-21T17:04:48;101547.36;;;38.06;17.89
42511;BME280;28141;51.120;17.114;2023-04-21T17:08:02;101547.67;;;38.04;17.85
42511;BME280;28141;51.120;17.114;2023-04-21T17:11:17;101544.61;;;38.00;18.08
42511;BME280;28141;51.120;17.114;2023-04-21T17:14:31;101542.73;;;37.96;18.14
42511;BME280;28141;51.120;17.114;2023-04-21T17:18:09;101544.57;;;37.87;18.10
42511;BME280;28141;51.120;17.114;2023-04-21T17:21:23;101535.78;;;37.75;18.12
42511;BME280;28141;51.120;17.114;2023-04-21T17:24:37;101538.52;;;37.61;18.30
42511;BME280;28141;51.120;17.114;2023-04-21T17:27:51;101537.08;;;37.45;18.24
42511;BME280;28141;51.120;17.114;2023-04-21T17:31:31;101527.40;;;37.32;18.43